sensor_id;sensor_type;location;lat;lon;timestamp;pressure;altitude;pressure_sealevel;temperature;humidity
33496;BME280;19836;55.812;37.560;2022-12-07T00:00:42;100806.19;;;-3.60;41.69
33496;BME280;19836;55.812;37.560;2022-12-07T00:03:07;100809.47;;;-3.65;42.84
33496;BME280;19836;55.812;37.560;2022-12-07T00:05:33;100806.19;;;-3.80;43.02
33496;BME280;19836;55.812;37.560;2022-12-07T00:07:59;100810.06;;;-3.91;43.14
33496;BME280;19836;55.812;37.560;2022-12-07T00:10:29;100818.34;;;-4.01;42.25
33496;BME280;19836;55.812;37.560;2022-12-07T00:12:59;100813.72;;;-4.07;43.35
33496;BME280;19836;55.812;37.560;2022-12-07T00:15:25;100813.22;;;-4.17;43.40
33496;BME280;19836;55.812;37.560;2022-12-07T00:17:50;100816.25;;;-4.27;42.58
33496;BME280;19836;55.812;37.560;2022-12-07T00:20:16;100814.34;;;-4.31;42.90
33496;BME280;19836;55.812;37.560;2022-12-07T00:22:42;100803.81;;;-4.32;43.88
33496;BME280;19836;55.812;37.560;2022-12-07T00:25:08;100811.66;;;-4.32;42.87
33496;BME280;19836;55.812;37.560;2022-12-07T00:27:34;100810.56;;;-4.38;43.10
33496;BME280;19836;55.812;37.560;2022-12-07T00:30:00;100810.56;;;-4.38;43.05
33496;BME280;19836;55.812;37.560;2022-12-07T00:32:28;100810.56;;;-4.38;43.73
33496;BME280;19836;55.812;37.560;2022-12-07T00:34:53;100807.03;;;-4.38;43.73
33496;BME280;19836;55.812;37.560;2022-12-07T00:37:20;100810.56;;;-4.38;43.16
33496;BME280;19836;55.812;37.560;2022-12-07T00:39:46;100817.50;;;-4.38;43.51
33496;BME280;19836;55.812;37.560;2022-12-07T00:42:12;100816.56;;;-4.40;43.88
33496;BME280;19836;55.812;37.560;2022-12-07T00:44:37;100818.88;;;-4.46;43.54
33496;BME280;19836;55.812;37.560;2022-12-07T00:47:03;100816.19;;;-4.47;43.96
33496;BME280;19836;55.812;37.560;2022-12-07T00:49:29;100825.63;;;-4.51;43.48
33496;BME280;19836;55.812;37.560;2022-12-07T00:51:55;100812.94;;;-4.42;43.57
33496;BME280;19836;55.812;37.560;2022-12-07T00:54:20;100811.31;;;-4.40;43.96
33496;BME280;19836;55.812;37.560;2022-12-07T00:56:46;100801.72;;;-4.40;44.29
33496;BME280;19836;55.812;37.560;2022-12-07T00:59:12;100809.31;;;-4.46;43.71
33496;BME280;19836;55.812;37.560;2022-12-07T01:01:40;100812.84;;;-4.45;44.73
33496;BME280;19836;55.812;37.560;2022-12-07T01:04:05;100799.53;;;-4.50;43.80
33496;BME280;19836;55.812;37.560;2022-12-07T01:06:31;100807.03;;;-4.57;43.91
33496;BME280;19836;55.812;37.560;2022-12-07T01:08:57;100804.19;;;-4.62;43.96
33496;BME280;19836;55.812;37.560;2022-12-07T01:11:24;100807.56;;;-4.64;45.11
33496;BME280;19836;55.812;37.560;2022-12-07T01:13:51;100817.19;;;-4.63;45.10
33496;BME280;19836;55.812;37.560;2022-12-07T01:16:17;100809.22;;;-4.66;45.06
33496;BME280;19836;55.812;37.560;2022-12-07T01:18:45;100813.91;;;-4.59;44.31
33496;BME280;19836;55.812;37.560;2022-12-07T01:21:12;100806.66;;;-4.65;44.52
33496;BME280;19836;55.812;37.560;2022-12-07T01:23:38;100808.41;;;-4.65;45.04
33496;BME280;19836;55.812;37.560;2022-12-07T01:26:05;100800.00;;;-4.58;45.36
33496;BME280;19836;55.812;37.560;2022-12-07T01:28:31;100810.53;;;-4.57;44.59
33496;BME280;19836;55.812;37.560;2022-12-07T01:31:01;100803.28;;;-4.62;45.28
33496;BME280;19836;55.812;37.560;2022-12-07T01:33:28;100804.13;;;-4.63;45.07
33496;BME280;19836;55.812;37.560;2022-12-07T01:35:54;100805.63;;;-4.68;45.17
33496;BME280;19836;55.812;37.560;2022-12-07T01:38:20;100801.25;;;-4.69;44.71
33496;BME280;19836;55.812;37.560;2022-12-07T01:40:53;100798.53;;;-4.71;45.17
33496;BME280;19836;55.812;37.560;2022-12-07T01:43:19;100792.44;;;-4.71;44.71
33496;BME280;19836;55.812;37.560;2022-12-07T01:45:45;100785.28;;;-4.75;44.30
33496;BME280;19836;55.812;37.560;2022-12-07T01:48:12;100786.91;;;-4.77;45.30
33496;BME280;19836;55.812;37.560;2022-12-07T01:50:39;100783.63;;;-4.73;45.26
33496;BME280;19836;55.812;37.560;2022-12-07T01:53:06;100793.13;;;-4.75;45.01
33496;BME280;19836;55.812;37.560;2022-12-07T01:55:34;100786.03;;;-4.78;45.05
33496;BME280;19836;55.812;37.560;2022-12-07T01:58:00;100782.44;;;-4.80;44.52
33496;BME280;19836;55.812;37.560;2022-12-07T02:00:26;100779.78;;;-4.81;45.24
33496;BME280;19836;55.812;37.560;2022-12-07T02:03:05;100782.16;;;-4.86;45.40
33496;BME280;19836;55.812;37.560;2022-12-07T02:05:33;100783.06;;;-4.85;45.46
33496;BME280;19836;55.812;37.560;2022-12-07T02:07:59;100781.41;;;-4.83;45.27
33496;BME280;19836;55.812;37.560;2022-12-07T02:10:26;100777.44;;;-4.75;45.38
33496;BME280;19836;55.812;37.560;2022-12-07T02:13:01;100785.28;;;-4.75;45.00
33496;BME280;19836;55.812;37.560;2022-12-07T02:15:38;100771.94;;;-4.81;45.11
33496;BME280;19836;55.812;37.560;2022-12-07T02:18:13;100783.66;;;-4.91;44.38
33496;BME280;19836;55.812;37.560;2022-12-07T02:30:55;100769.72;;;-4.91;45.17
33496;BME280;19836;55.812;37.560;2022-12-07T02:33:28;100780.56;;;-5.01;44.59
33496;BME280;19836;55.812;37.560;2022-12-07T02:35:59;100769.66;;;-5.10;44.76
33496;BME280;19836;55.812;37.560;2022-12-07T02:41:04;100764.44;;;-5.10;45.51
33496;BME280;19836;55.812;37.560;2022-12-07T02:43:33;100768.00;;;-5.08;45.43
33496;BME280;19836;55.812;37.560;2022-12-07T02:46:08;100768.16;;;-5.05;44.76
33496;BME280;19836;55.812;37.560;2022-12-07T02:48:35;100768.00;;;-5.08;44.95
33496;BME280;19836;55.812;37.560;2022-12-07T02:51:02;100764.50;;;-5.08;45.48
33496;BME280;19836;55.812;37.560;2022-12-07T02:53:36;100764.44;;;-5.10;45.57
33496;BME280;19836;55.812;37.560;2022-12-07T03:01:20;100766.84;;;-5.32;45.70
33496;BME280;19836;55.812;37.560;2022-12-07T03:03:54;100764.09;;;-5.35;45.16
33496;BME280;19836;55.812;37.560;2022-12-07T03:06:27;100767.44;;;-5.38;45.16
33496;BME280;19836;55.812;37.560;2022-12-07T03:11:25;100757.59;;;-5.43;45.31
33496;BME280;19836;55.812;37.560;2022-12-07T03:13:59;100754.97;;;-5.43;45.49
33496;BME280;19836;55.812;37.560;2022-12-07T03:19:14;100757.59;;;-5.43;45.56
33496;BME280;19836;55.812;37.560;2022-12-07T03:21:49;100767.16;;;-5.43;46.06
33496;BME280;19836;55.812;37.560;2022-12-07T03:24:18;100763.50;;;-5.47;46.03
33496;BME280;19836;55.812;37.560;2022-12-07T03:26:48;100760.56;;;-5.53;46.20
33496;BME280;19836;55.812;37.560;2022-12-07T03:29:17;100765.78;;;-5.53;46.34
33496;BME280;19836;55.812;37.560;2022-12-07T03:31:46;100769.84;;;-5.59;45.72
33496;BME280;19836;55.812;37.560;2022-12-07T03:34:18;100768.94;;;-5.60;46.18
33496;BME280;19836;55.812;37.560;2022-12-07T03:37:07;100763.53;;;-5.63;46.42
33496;BME280;19836;55.812;37.560;2022-12-07T03:42:18;100768.63;;;-5.66;46.04
33496;BME280;19836;55.812;37.560;2022-12-07T03:44:45;100762.38;;;-5.69;46.74
33496;BME280;19836;55.812;37.560;2022-12-07T03:52:05;100762.69;;;-5.81;46.82
33496;BME280;19836;55.812;37.560;2022-12-07T03:54:37;100757.22;;;-5.85;46.97
33496;BME280;19836;55.812;37.560;2022-12-07T03:57:06;100753.72;;;-5.86;46.77
33496;BME280;19836;55.812;37.560;2022-12-07T03:59:34;100751.94;;;-5.87;47.00
33496;BME280;19836;55.812;37.560;2022-12-07T04:02:03;100758.84;;;-5.87;47.19
33496;BME280;19836;55.812;37.560;2022-12-07T04:04:30;100756.16;;;-5.89;47.13
33496;BME280;19836;55.812;37.560;2022-12-07T04:06:56;100753.56;;;-5.89;47.28
33496;BME280;19836;55.812;37.560;2022-12-07T04:09:22;100744.47;;;-5.97;47.40
33496;BME280;19836;55.812;37.560;2022-12-07T04:11:48;100761.75;;;-5.99;47.45
33496;BME280;19836;55.812;37.560;2022-12-07T04:14:13;100750.56;;;-5.96;47.46
33496;BME280;19836;55.812;37.560;2022-12-07T04:16:55;100748.03;;;-5.95;47.99
33496;BME280;19836;55.812;37.560;2022-12-07T04:19:25;100744.47;;;-5.97;47.79
33496;BME280;19836;55.812;37.560;2022-12-07T04:21:51;100757.25;;;-6.01;47.79
33496;BME280;19836;55.812;37.560;2022-12-07T04:24:20;100752.94;;;-6.01;47.98
33496;BME280;19836;55.812;37.560;2022-12-07T04:27:14;100749.53;;;-6.00;48.41
33496;BME280;19836;55.812;37.560;2022-12-07T05:36:14;100736.34;;;-6.19;50.95
33496;BME280;19836;55.812;37.560;2022-12-07T05:39:07;100744.19;;;-6.19;51.23
33496;BME280;19836;55.812;37.560;2022-12-07T05:48:37;100746.97;;;-6.16;51.70
33496;BME280;19836;55.812;37.560;2022-12-07T05:51:11;100743.22;;;-6.21;51.65
33496;BME280;19836;55.812;37.560;2022-12-07T05:53:37;100746.66;;;-6.22;51.87
33496;BME280;19836;55.812;37.560;2022-12-07T05:56:04;100736.22;;;-6.22;51.91
33496;BME280;19836;55.812;37.560;2022-12-07T06:29:53;100744.69;;;-6.26;53.29
33496;BME280;19836;55.812;37.560;2022-12-07T06:32:22;100745.16;;;-6.17;53.52
33496;BME280;19836;55.812;37.560;2022-12-07T07:19:53;100741.66;;;-6.17;55.47
33496;BME280;19836;55.812;37.560;2022-12-07T07:22:19;100738.41;;;-6.13;55.46
33496;BME280;19836;55.812;37.560;2022-12-07T07:25:27;100743.69;;;-6.12;55.62
33496;BME280;19836;55.812;37.560;2022-12-07T07:28:42;100734.88;;;-6.14;55.68
33496;BME280;19836;55.812;37.560;2022-12-07T07:31:45;100739.59;;;-6.07;55.80
33496;BME280;19836;55.812;37.560;2022-12-07T07:35:40;100724.75;;;-6.08;55.50
33496;BME280;19836;55.812;37.560;2022-12-07T07:39:34;100724.25;;;-6.01;55.89
33496;BME280;19836;55.812;37.560;2022-12-07T07:42:00;100726.13;;;-5.98;55.92
33496;BME280;19836;55.812;37.560;2022-12-07T07:44:32;100727.00;;;-5.98;56.01
33496;BME280;19836;55.812;37.560;2022-12-07T08:01:29;100711.25;;;-5.83;56.35
33496;BME280;19836;55.812;37.560;2022-12-07T08:04:00;100721.03;;;-5.78;55.89
33496;BME280;19836;55.812;37.560;2022-12-07T08:06:31;100716.81;;;-5.76;56.10
33496;BME280;19836;55.812;37.560;2022-12-07T08:08:57;100710.59;;;-5.78;55.72
33496;BME280;19836;55.812;37.560;2022-12-07T08:49:46;100698.09;;;-5.50;55.35
33496;BME280;19836;55.812;37.560;2022-12-07T08:52:16;100682.25;;;-5.53;55.12
33496;BME280;19836;55.812;37.560;2022-12-07T08:54:44;100686.59;;;-5.53;55.66
33496;BME280;19836;55.812;37.560;2022-12-07T09:20:13;100646.72;;;-3.32;51.74
33496;BME280;19836;55.812;37.560;2022-12-07T09:22:39;100652.84;;;-3.09;51.58
33496;BME280;19836;55.812;37.560;2022-12-07T09:25:05;100643.72;;;-2.73;51.02
33496;BME280;19836;55.812;37.560;2022-12-07T10:00:14;100582.09;;;2.54;41.53
33496;BME280;19836;55.812;37.560;2022-12-07T10:02:47;100586.13;;;2.89;41.39
33496;BME280;19836;55.812;37.560;2022-12-07T10:05:30;100590.25;;;3.33;41.22
33496;BME280;19836;55.812;37.560;2022-12-07T10:08:01;100583.53;;;3.62;39.74
33496;BME280;19836;55.812;37.560;2022-12-07T10:10:32;100577.31;;;3.57;39.39
33496;BME280;19836;55.812;37.560;2022-12-07T10:13:06;100574.19;;;3.18;38.81
33496;BME280;19836;55.812;37.560;2022-12-07T10:15:54;100572.88;;;2.28;38.45
33496;BME280;19836;55.812;37.560;2022-12-07T10:21:16;100580.34;;;3.18;38.50
33496;BME280;19836;55.812;37.560;2022-12-07T10:24:00;100573.91;;;2.36;38.30
33496;BME280;19836;55.812;37.560;2022-12-07T10:26:38;100578.19;;;1.79;38.27
33496;BME280;19836;55.812;37.560;2022-12-07T10:31:39;100574.81;;;0.97;39.04
33496;BME280;19836;55.812;37.560;2022-12-07T10:34:08;100582.63;;;0.92;39.43
33496;BME280;19836;55.812;37.560;2022-12-07T10:36:48;100570.66;;;1.08;39.13
33496;BME280;19836;55.812;37.560;2022-12-07T10:39:14;100571.59;;;1.11;38.53
33496;BME280;19836;55.812;37.560;2022-12-07T10:41:54;100577.50;;;1.00;39.06
33496;BME280;19836;55.812;37.560;2022-12-07T10:44:23;100565.72;;;0.44;38.46
33496;BME280;19836;55.812;37.560;2022-12-07T10:49:47;100575.16;;;0.72;38.88
33496;BME280;19836;55.812;37.560;2022-12-07T12:45:47;100507.19;;;-5.19;49.99
33496;BME280;19836;55.812;37.560;2022-12-07T13:18:01;100508.78;;;-5.61;52.03
33496;BME280;19836;55.812;37.560;2022-12-07T14:56:34;100471.19;;;-6.39;55.71
33496;BME280;19836;55.812;37.560;2022-12-07T14:59:07;100478.19;;;-6.38;55.88
33496;BME280;19836;55.812;37.560;2022-12-07T15:57:39;100441.50;;;-6.60;57.92
33496;BME280;19836;55.812;37.560;2022-12-07T16:00:19;100450.06;;;-6.62;57.92
33496;BME280;19836;55.812;37.560;2022-12-07T16:02:45;100437.13;;;-6.61;58.16
33496;BME280;19836;55.812;37.560;2022-12-07T16:05:12;100432.03;;;-6.58;58.19
33496;BME280;19836;55.812;37.560;2022-12-07T16:07:39;100414.63;;;-6.59;58.14
33496;BME280;19836;55.812;37.560;2022-12-07T16:10:06;100419.72;;;-6.62;58.31
33496;BME280;19836;55.812;37.560;2022-12-07T16:12:32;100435.19;;;-6.65;58.38
33496;BME280;19836;55.812;37.560;2022-12-07T16:14:58;100414.34;;;-6.65;58.46
33496;BME280;19836;55.812;37.560;2022-12-07T16:17:25;100433.63;;;-6.61;58.42
33496;BME280;19836;55.812;37.560;2022-12-07T16:19:51;100425.72;;;-6.63;58.47
33496;BME280;19836;55.812;37.560;2022-12-07T16:22:18;100435.09;;;-6.66;58.27
33496;BME280;19836;55.812;37.560;2022-12-07T16:24:44;100438.75;;;-6.63;58.68
33496;BME280;19836;55.812;37.560;2022-12-07T16:27:10;100430.13;;;-6.62;58.59
33496;BME280;19836;55.812;37.560;2022-12-07T16:29:36;100438.63;;;-6.66;58.63
33496;BME280;19836;55.812;37.560;2022-12-07T16:32:02;100427.16;;;-6.69;58.67
33496;BME280;19836;55.812;37.560;2022-12-07T16:34:28;100436.69;;;-6.70;58.79
33496;BME280;19836;55.812;37.560;2022-12-07T16:36:54;100422.81;;;-6.69;58.90
33496;BME280;19836;55.812;37.560;2022-12-07T16:39:21;100429.97;;;-6.65;58.96
33496;BME280;19836;55.812;37.560;2022-12-07T16:41:46;100425.97;;;-6.58;58.95
33496;BME280;19836;55.812;37.560;2022-12-07T16:47:10;100417.53;;;-6.70;58.72
33496;BME280;19836;55.812;37.560;2022-12-07T16:50:08;100420.22;;;-6.69;59.19
33496;BME280;19836;55.812;37.560;2022-12-07T16:53:40;100421.13;;;-6.68;59.29
33496;BME280;19836;55.812;37.560;2022-12-07T16:56:11;100415.69;;;-6.73;59.21
33496;BME280;19836;55.812;37.560;2022-12-07T16:58:41;100413.91;;;-6.74;59.26
33496;BME280;19836;55.812;37.560;2022-12-07T17:01:13;100414.94;;;-6.70;59.35
33496;BME280;19836;55.812;37.560;2022-12-07T17:03:42;100413.06;;;-6.73;58.88
33496;BME280;19836;55.812;37.560;2022-12-07T17:13:58;100403.94;;;-6.65;59.40
33496;BME280;19836;55.812;37.560;2022-12-07T17:33:01;100381.31;;;-6.66;59.94
33496;BME280;19836;55.812;37.560;2022-12-07T17:35:28;100386.34;;;-6.69;59.93
33496;BME280;19836;55.812;37.560;2022-12-07T17:37:54;100382.88;;;-6.69;59.95
33496;BME280;19836;55.812;37.560;2022-12-07T17:40:21;100374.16;;;-6.70;60.07
33496;BME280;19836;55.812;37.560;2022-12-07T17:42:49;100389.94;;;-6.67;60.12
33496;BME280;19836;55.812;37.560;2022-12-07T17:45:16;100376.03;;;-6.67;60.14
33496;BME280;19836;55.812;37.560;2022-12-07T17:58:57;100390.84;;;-6.84;60.37
33496;BME280;19836;55.812;37.560;2022-12-07T18:01:36;100383.25;;;-6.79;60.51
33496;BME280;19836;55.812;37.560;2022-12-07T18:04:09;100381.03;;;-6.72;60.69
33496;BME280;19836;55.812;37.560;2022-12-07T18:23:48;100374.31;;;-6.67;60.68
33496;BME280;19836;55.812;37.560;2022-12-07T18:26:26;100366.56;;;-6.65;60.85
33496;BME280;19836;55.812;37.560;2022-12-07T18:28:55;100356.88;;;-6.68;60.87
33496;BME280;19836;55.812;37.560;2022-12-07T18:32:35;100375.00;;;-6.71;60.81
33496;BME280;19836;55.812;37.560;2022-12-07T18:38:16;100361.13;;;-6.70;61.01
33496;BME280;19836;55.812;37.560;2022-12-07T18:40:45;100367.16;;;-6.71;61.17
33496;BME280;19836;55.812;37.560;2022-12-07T18:43:11;100363.59;;;-6.73;61.01
33496;BME280;19836;55.812;37.560;2022-12-07T18:45:38;100363.47;;;-6.76;61.03
33496;BME280;19836;55.812;37.560;2022-12-07T18:48:04;100353.16;;;-6.73;61.21
33496;BME280;19836;55.812;37.560;2022-12-07T18:50:33;100348.88;;;-6.72;61.19
33496;BME280;19836;55.812;37.560;2022-12-07T18:53:02;100355.66;;;-6.76;61.26
33496;BME280;19836;55.812;37.560;2022-12-07T18:55:29;100357.34;;;-6.76;61.23
33496;BME280;19836;55.812;37.560;2022-12-07T18:57:56;100343.28;;;-6.80;61.22
33496;BME280;19836;55.812;37.560;2022-12-07T19:00:23;100348.66;;;-6.77;61.33
33496;BME280;19836;55.812;37.560;2022-12-07T19:02:55;100339.03;;;-6.78;61.41
33496;BME280;19836;55.812;37.560;2022-12-07T19:05:21;100339.19;;;-6.75;61.43
33496;BME280;19836;55.812;37.560;2022-12-07T19:07:50;100335.09;;;-6.70;61.47
33496;BME280;19836;55.812;37.560;2022-12-07T19:10:19;100325.63;;;-6.68;61.50
33496;BME280;19836;55.812;37.560;2022-12-07T19:12:46;100337.84;;;-6.67;61.47
33496;BME280;19836;55.812;37.560;2022-12-07T19:15:13;100331.56;;;-6.70;61.48
33496;BME280;19836;55.812;37.560;2022-12-07T19:17:39;100332.31;;;-6.73;61.77
33496;BME280;19836;55.812;37.560;2022-12-07T19:20:06;100339.19;;;-6.75;61.44
33496;BME280;19836;55.812;37.560;2022-12-07T19:22:34;100333.38;;;-6.69;61.60
33496;BME280;19836;55.812;37.560;2022-12-07T19:25:00;100330.72;;;-6.71;61.59
33496;BME280;19836;55.812;37.560;2022-12-07T19:27:26;100329.81;;;-6.71;61.54
33496;BME280;19836;55.812;37.560;2022-12-07T19:29:52;100328.94;;;-6.72;61.46
33496;BME280;19836;55.812;37.560;2022-12-07T19:32:18;100328.94;;;-6.72;61.72
33496;BME280;19836;55.812;37.560;2022-12-07T19:34:45;100335.00;;;-6.71;61.66
33496;BME280;19836;55.812;37.560;2022-12-07T19:37:13;100331.53;;;-6.72;61.37
33496;BME280;19836;55.812;37.560;2022-12-07T19:39:43;100329.06;;;-6.69;61.83
33496;BME280;19836;55.812;37.560;2022-12-07T19:42:33;100332.41;;;-6.71;61.82
33496;BME280;19836;55.812;37.560;2022-12-07T19:45:00;100329.97;;;-6.68;61.76
33496;BME280;19836;55.812;37.560;2022-12-07T19:47:38;100318.78;;;-6.66;61.91
33496;BME280;19836;55.812;37.560;2022-12-07T19:50:05;100331.72;;;-6.67;61.90
33496;BME280;19836;55.812;37.560;2022-12-07T19:52:31;100324.00;;;-6.66;61.79
33496;BME280;19836;55.812;37.560;2022-12-07T19:55:00;100329.06;;;-6.69;61.97
33496;BME280;19836;55.812;37.560;2022-12-07T19:57:34;100324.00;;;-6.66;61.60
33496;BME280;19836;55.812;37.560;2022-12-07T20:00:03;100324.94;;;-6.64;62.06
33496;BME280;19836;55.812;37.560;2022-12-07T20:02:52;100323.00;;;-6.68;61.92
33496;BME280;19836;55.812;37.560;2022-12-07T20:05:21;100337.03;;;-6.66;61.96
33496;BME280;19836;55.812;37.560;2022-12-07T20:07:51;100334.41;;;-6.66;61.98
33496;BME280;19836;55.812;37.560;2022-12-07T20:10:17;100317.88;;;-6.66;61.78
33496;BME280;19836;55.812;37.560;2022-12-07T20:12:44;100336.19;;;-6.65;61.37
33496;BME280;19836;55.812;37.560;2022-12-07T20:15:31;100327.56;;;-6.64;61.89
33496;BME280;19836;55.812;37.560;2022-12-07T20:17:57;100327.56;;;-6.64;61.99
33496;BME280;19836;55.812;37.560;2022-12-07T20:20:23;100339.06;;;-6.59;62.06
33496;BME280;19836;55.812;37.560;2022-12-07T20:22:56;100327.22;;;-6.52;62.02
33496;BME280;19836;55.812;37.560;2022-12-07T20:25:25;100325.47;;;-6.53;62.14
33496;BME280;19836;55.812;37.560;2022-12-07T20:27:51;100330.66;;;-6.53;61.73
33496;BME280;19836;55.812;37.560;2022-12-07T20:30:20;100331.41;;;-6.56;61.91
33496;BME280;19836;55.812;37.560;2022-12-07T20:32:47;100322.63;;;-6.58;62.08
33496;BME280;19836;55.812;37.560;2022-12-07T20:35:14;100327.16;;;-6.54;61.89
33496;BME280;19836;55.812;37.560;2022-12-07T20:37:40;100318.59;;;-6.51;62.04
33496;BME280;19836;55.812;37.560;2022-12-07T20:40:09;100316.97;;;-6.49;61.73
33496;BME280;19836;55.812;37.560;2022-12-07T20:42:36;100311.53;;;-6.54;62.03
33496;BME280;19836;55.812;37.560;2022-12-07T20:45:02;100298.31;;;-6.58;61.94
33496;BME280;19836;55.812;37.560;2022-12-07T20:47:34;100310.69;;;-6.53;61.97
33496;BME280;19836;55.812;37.560;2022-12-07T20:50:01;100314.41;;;-6.48;61.92
33496;BME280;19836;55.812;37.560;2022-12-07T20:52:37;100313.66;;;-6.45;62.01
33496;BME280;19836;55.812;37.560;2022-12-07T20:55:06;100306.19;;;-6.38;62.12
33496;BME280;19836;55.812;37.560;2022-12-07T20:57:33;100304.88;;;-6.28;61.96
33496;BME280;19836;55.812;37.560;2022-12-07T20:59:59;100303.72;;;-6.35;61.73
33496;BME280;19836;55.812;37.560;2022-12-07T21:02:25;100315.50;;;-6.43;61.73
33496;BME280;19836;55.812;37.560;2022-12-07T21:04:51;100298.25;;;-6.41;61.89
33496;BME280;19836;55.812;37.560;2022-12-07T21:07:18;100303.44;;;-6.41;61.76
33496;BME280;19836;55.812;37.560;2022-12-07T21:09:44;100298.25;;;-6.41;61.72
33496;BME280;19836;55.812;37.560;2022-12-07T21:12:10;100300.84;;;-6.41;61.73
33496;BME280;19836;55.812;37.560;2022-12-07T21:14:40;100300.97;;;-6.38;61.76
33496;BME280;19836;55.812;37.560;2022-12-07T21:17:09;100293.56;;;-6.48;61.50
33496;BME280;19836;55.812;37.560;2022-12-07T21:19:35;100285.47;;;-6.54;61.59
33496;BME280;19836;55.812;37.560;2022-12-07T21:22:02;100285.47;;;-6.54;61.67
33496;BME280;19836;55.812;37.560;2022-12-07T21:24:46;100276.63;;;-6.57;61.83
33496;BME280;19836;55.812;37.560;2022-12-07T21:27:12;100276.97;;;-6.50;61.81
33496;BME280;19836;55.812;37.560;2022-12-07T21:29:42;100274.63;;;-6.44;61.80
33496;BME280;19836;55.812;37.560;2022-12-07T21:32:08;100280.00;;;-6.41;61.91
33496;BME280;19836;55.812;37.560;2022-12-07T21:34:34;100287.75;;;-6.42;61.58
33496;BME280;19836;55.812;37.560;2022-12-07T21:37:01;100283.44;;;-6.42;61.80
33496;BME280;19836;55.812;37.560;2022-12-07T21:39:27;100278.22;;;-6.42;61.78
33496;BME280;19836;55.812;37.560;2022-12-07T21:41:56;100275.06;;;-6.35;61.69
33496;BME280;19836;55.812;37.560;2022-12-07T21:44:23;100270.38;;;-6.23;61.83
33496;BME280;19836;55.812;37.560;2022-12-07T21:46:49;100271.53;;;-6.16;61.79
33496;BME280;19836;55.812;37.560;2022-12-07T21:49:18;100271.25;;;-6.22;61.58
33496;BME280;19836;55.812;37.560;2022-12-07T21:51:44;100273.53;;;-6.30;61.53
33496;BME280;19836;55.812;37.560;2022-12-07T21:54:10;100259.81;;;-6.26;61.51
33496;BME280;19836;55.812;37.560;2022-12-07T21:56:40;100276.34;;;-6.25;61.47
33496;BME280;19836;55.812;37.560;2022-12-07T21:59:14;100259.75;;;-6.27;61.40
33496;BME280;19836;55.812;37.560;2022-12-07T22:01:42;100265.91;;;-6.25;61.45
33496;BME280;19836;55.812;37.560;2022-12-07T22:04:18;100259.06;;;-6.23;61.47
33496;BME280;19836;55.812;37.560;2022-12-07T22:06:47;100268.47;;;-6.27;61.34
33496;BME280;19836;55.812;37.560;2022-12-07T22:09:16;100270.78;;;-6.33;61.36
33496;BME280;19836;55.812;37.560;2022-12-07T22:11:43;100262.94;;;-6.34;61.38
33496;BME280;19836;55.812;37.560;2022-12-07T22:14:12;100264.13;;;-6.26;61.45
33496;BME280;19836;55.812;37.560;2022-12-07T22:16:56;100255.78;;;-6.19;61.86
33496;BME280;19836;55.812;37.560;2022-12-07T22:19:23;100259.31;;;-6.17;61.47
33496;BME280;19836;55.812;37.560;2022-12-07T22:21:52;100264.63;;;-6.16;61.73
33496;BME280;19836;55.812;37.560;2022-12-07T22:24:18;100255.28;;;-6.11;61.42
33496;BME280;19836;55.812;37.560;2022-12-07T22:26:45;100251.16;;;-6.06;61.36
33496;BME280;19836;55.812;37.560;2022-12-07T22:29:13;100251.41;;;-6.00;61.58
33496;BME280;19836;55.812;37.560;2022-12-07T22:31:40;100255.69;;;-6.02;61.92
33496;BME280;19836;55.812;37.560;2022-12-07T22:34:09;100260.13;;;-5.99;61.57
33496;BME280;19836;55.812;37.560;2022-12-07T22:36:41;100243.72;;;-5.97;61.63
33496;BME280;19836;55.812;37.560;2022-12-07T22:39:10;100252.22;;;-6.01;61.68
33496;BME280;19836;55.812;37.560;2022-12-07T22:41:36;100250.47;;;-6.02;61.70
33496;BME280;19836;55.812;37.560;2022-12-07T22:44:01;100243.31;;;-6.06;61.80
33496;BME280;19836;55.812;37.560;2022-12-07T22:46:32;100238.09;;;-6.06;62.25
33496;BME280;19836;55.812;37.560;2022-12-07T22:48:58;100229.44;;;-6.05;61.96
33496;BME280;19836;55.812;37.560;2022-12-07T22:51:28;100234.38;;;-5.92;62.36
33496;BME280;19836;55.812;37.560;2022-12-07T22:53:54;100234.56;;;-5.87;62.37
33496;BME280;19836;55.812;37.560;2022-12-07T22:56:21;100234.81;;;-5.81;62.48
33496;BME280;19836;55.812;37.560;2022-12-07T22:58:47;100221.69;;;-5.83;62.26
33496;BME280;19836;55.812;37.560;2022-12-07T23:01:14;100226.09;;;-5.82;62.59
33496;BME280;19836;55.812;37.560;2022-12-07T23:03:40;100213.13;;;-5.79;62.40
33496;BME280;19836;55.812;37.560;2022-12-07T23:06:06;100216.63;;;-5.80;62.11
33496;BME280;19836;55.812;37.560;2022-12-07T23:08:33;100204.47;;;-5.78;62.38
33496;BME280;19836;55.812;37.560;2022-12-07T23:10:59;100206.53;;;-5.71;62.96
33496;BME280;19836;55.812;37.560;2022-12-07T23:13:25;100205.69;;;-5.70;62.83
33496;BME280;19836;55.812;37.560;2022-12-07T23:16:07;100213.66;;;-5.67;62.75
33496;BME280;19836;55.812;37.560;2022-12-07T23:18:33;100211.75;;;-5.71;62.71
33496;BME280;19836;55.812;37.560;2022-12-07T23:20:59;100212.56;;;-5.72;62.88
33496;BME280;19836;55.812;37.560;2022-12-07T23:23:25;100199.53;;;-5.72;63.23
33496;BME280;19836;55.812;37.560;2022-12-07T23:25:51;100203.47;;;-5.61;63.27
33496;BME280;19836;55.812;37.560;2022-12-07T23:28:20;100198.72;;;-5.49;62.82
33496;BME280;19836;55.812;37.560;2022-12-07T23:30:45;100195.16;;;-5.51;63.17
33496;BME280;19836;55.812;37.560;2022-12-07T23:33:11;100189.81;;;-5.54;62.85
33496;BME280;19836;55.812;37.560;2022-12-07T23:35:37;100193.97;;;-5.59;63.14
33496;BME280;19836;55.812;37.560;2022-12-07T23:38:03;100199.88;;;-5.63;62.93
33496;BME280;19836;55.812;37.560;2022-12-07T23:40:29;100203.22;;;-5.67;63.62
33496;BME280;19836;55.812;37.560;2022-12-07T23:42:54;100198.25;;;-5.61;63.60
33496;BME280;19836;55.812;37.560;2022-12-07T23:45:20;100196.25;;;-5.67;63.68
33496;BME280;19836;55.812;37.560;2022-12-07T23:47:46;100185.97;;;-5.63;63.71